sensor_id;sensor_type;location;lat;lon;timestamp;pressure;altitude;pressure_sealevel;temperature;humidity
16806;BME280;8520;50.102;20.010;2022-12-29T00:01:08;98274.94;;;6.80;56.95
16806;BME280;8520;50.102;20.010;2022-12-29T00:03:37;98275.00;;;6.67;57.28
16806;BME280;8520;50.102;20.010;2022-12-29T00:06:06;98269.75;;;7.04;56.56
16806;BME280;8520;50.102;20.010;2022-12-29T00:08:34;98279.94;;;7.03;56.67
16806;BME280;8520;50.102;20.010;2022-12-29T00:11:13;98272.09;;;7.15;56.55
16806;BME280;8520;50.102;20.010;2022-12-29T00:13:42;98268.06;;;7.37;56.16
16806;BME280;8520;50.102;20.010;2022-12-29T00:16:28;98273.13;;;7.48;56.04
16806;BME280;8520;50.102;20.010;2022-12-29T00:18:57;98283.31;;;7.07;57.12
16806;BME280;8520;50.102;20.010;2022-12-29T00:21:27;98275.00;;;7.20;56.97
16806;BME280;8520;50.102;20.010;2022-12-29T00:24:22;98281.81;;;6.84;57.75
16806;BME280;8520;50.102;20.010;2022-12-29T00:27:11;98279.56;;;6.61;58.22
16806;BME280;8520;50.102;20.010;2022-12-29T00:29:57;98283.72;;;6.97;57.72
16806;BME280;8520;50.102;20.010;2022-12-29T00:32:43;98275.19;;;7.26;56.94
16806;BME280;8520;50.102;20.010;2022-12-29T00:35:31;98267.91;;;7.32;56.80
16806;BME280;8520;50.102;20.010;2022-12-29T00:38:05;98273.09;;;7.39;56.61
16806;BME280;8520;50.102;20.010;2022-12-29T00:40:52;98278.38;;;7.24;56.94
16806;BME280;8520;50.102;20.010;2022-12-29T00:43:38;98273.09;;;7.39;56.90
16806;BME280;8520;50.102;20.010;2022-12-29T00:46:23;98273.34;;;7.23;57.34
16806;BME280;8520;50.102;20.010;2022-12-29T00:48:51;98270.25;;;7.11;57.36
16806;BME280;8520;50.102;20.010;2022-12-29T00:51:37;98279.06;;;7.06;57.55
16806;BME280;8520;50.102;20.010;2022-12-29T00:54:06;98276.53;;;6.90;57.72
16806;BME280;8520;50.102;20.010;2022-12-29T00:56:35;98268.88;;;6.85;57.90
16806;BME280;8520;50.102;20.010;2022-12-29T00:59:04;98275.50;;;6.97;57.52
16806;BME280;8520;50.102;20.010;2022-12-29T01:01:33;98274.50;;;6.81;57.75
16806;BME280;8520;50.102;20.010;2022-12-29T01:04:02;98275.34;;;6.69;57.79
16806;BME280;8520;50.102;20.010;2022-12-29T01:06:31;98278.53;;;6.46;58.01
16806;BME280;8520;50.102;20.010;2022-12-29T01:08:59;98270.03;;;6.75;57.33
16806;BME280;8520;50.102;20.010;2022-12-29T01:11:48;98264.59;;;7.06;56.34
16806;BME280;8520;50.102;20.010;2022-12-29T01:14:17;98272.78;;;6.75;56.55
16806;BME280;8520;50.102;20.010;2022-12-29T01:16:46;98270.44;;;6.86;56.70
16806;BME280;8520;50.102;20.010;2022-12-29T01:19:17;98263.09;;;6.83;56.55
16806;BME280;8520;50.102;20.010;2022-12-29T01:21:45;98254.44;;;6.84;56.50
16806;BME280;8520;50.102;20.010;2022-12-29T01:24:14;98254.88;;;6.83;56.73
16806;BME280;8520;50.102;20.010;2022-12-29T01:26:43;98242.09;;;6.80;56.84
16806;BME280;8520;50.102;20.010;2022-12-29T01:29:13;98240.97;;;6.99;57.11
16806;BME280;8520;50.102;20.010;2022-12-29T01:31:44;98236.81;;;6.64;57.46
16806;BME280;8520;50.102;20.010;2022-12-29T01:34:13;98234.50;;;6.84;56.97
16806;BME280;8520;50.102;20.010;2022-12-29T01:36:41;98238.22;;;6.68;56.98
16806;BME280;8520;50.102;20.010;2022-12-29T01:39:11;98244.00;;;7.01;56.62
16806;BME280;8520;50.102;20.010;2022-12-29T01:41:40;98240.78;;;6.94;56.73
16806;BME280;8520;50.102;20.010;2022-12-29T01:47:21;98236.59;;;7.11;56.07
16806;BME280;8520;50.102;20.010;2022-12-29T01:49:53;98237.91;;;6.97;56.11
16806;BME280;8520;50.102;20.010;2022-12-29T01:52:24;98234.91;;;7.04;56.19
16806;BME280;8520;50.102;20.010;2022-12-29T01:54:55;98227.72;;;6.98;55.97
16806;BME280;8520;50.102;20.010;2022-12-29T01:57:26;98218.91;;;7.03;55.88
16806;BME280;8520;50.102;20.010;2022-12-29T01:59:58;98229.47;;;7.13;55.77
16806;BME280;8520;50.102;20.010;2022-12-29T02:02:40;98236.09;;;7.03;55.81
16806;BME280;8520;50.102;20.010;2022-12-29T02:05:14;98227.06;;;7.25;55.62
16806;BME280;8520;50.102;20.010;2022-12-29T02:07:44;98218.09;;;7.24;55.48
16806;BME280;8520;50.102;20.010;2022-12-29T02:10:13;98217.63;;;7.26;55.33
16806;BME280;8520;50.102;20.010;2022-12-29T02:12:41;98211.72;;;7.36;55.19
16806;BME280;8520;50.102;20.010;2022-12-29T02:15:10;98215.47;;;7.21;55.54
16806;BME280;8520;50.102;20.010;2022-12-29T02:17:52;98222.81;;;7.24;55.48
16806;BME280;8520;50.102;20.010;2022-12-29T02:20:42;98219.94;;;7.36;55.29
16806;BME280;8520;50.102;20.010;2022-12-29T02:23:34;98216.94;;;7.53;54.89
16806;BME280;8520;50.102;20.010;2022-12-29T02:26:29;98230.38;;;7.69;54.81
16806;BME280;8520;50.102;20.010;2022-12-29T02:29:21;98239.63;;;7.53;55.11
16806;BME280;8520;50.102;20.010;2022-12-29T02:31:58;98218.63;;;7.59;55.11
16806;BME280;8520;50.102;20.010;2022-12-29T02:34:36;98203.72;;;7.79;54.66
16806;BME280;8520;50.102;20.010;2022-12-29T02:37:13;98211.44;;;7.44;55.42
16806;BME280;8520;50.102;20.010;2022-12-29T02:39:52;98203.38;;;7.49;55.25
16806;BME280;8520;50.102;20.010;2022-12-29T02:42:33;98190.28;;;7.53;55.36
16806;BME280;8520;50.102;20.010;2022-12-29T02:45:05;98179.63;;;7.55;55.23
16806;BME280;8520;50.102;20.010;2022-12-29T02:47:41;98166.09;;;7.70;55.13
16806;BME280;8520;50.102;20.010;2022-12-29T02:50:20;98173.09;;;7.80;55.06
16806;BME280;8520;50.102;20.010;2022-12-29T02:52:54;98171.13;;;7.72;55.09
16806;BME280;8520;50.102;20.010;2022-12-29T02:55:25;98172.63;;;7.73;55.23
16806;BME280;8520;50.102;20.010;2022-12-29T02:58:16;98173.97;;;7.50;55.56
16806;BME280;8520;50.102;20.010;2022-12-29T03:00:59;98172.31;;;7.61;55.63
16806;BME280;8520;50.102;20.010;2022-12-29T03:03:42;98176.13;;;7.73;55.09
16806;BME280;8520;50.102;20.010;2022-12-29T03:06:25;98166.97;;;7.67;55.21
16806;BME280;8520;50.102;20.010;2022-12-29T03:09:01;98177.81;;;7.80;55.13
16806;BME280;8520;50.102;20.010;2022-12-29T03:11:48;98168.38;;;7.81;55.00
16806;BME280;8520;50.102;20.010;2022-12-29T03:14:47;98175.53;;;7.78;55.40
16806;BME280;8520;50.102;20.010;2022-12-29T03:17:43;98158.47;;;7.83;55.08
16806;BME280;8520;50.102;20.010;2022-12-29T03:20:18;98161.19;;;7.92;55.12
16806;BME280;8520;50.102;20.010;2022-12-29T03:22:51;98169.13;;;7.99;55.15
16806;BME280;8520;50.102;20.010;2022-12-29T03:25:24;98168.97;;;8.12;54.76
16806;BME280;8520;50.102;20.010;2022-12-29T03:27:57;98168.97;;;7.94;55.01
16806;BME280;8520;50.102;20.010;2022-12-29T03:30:29;98179.16;;;8.12;55.14
16806;BME280;8520;50.102;20.010;2022-12-29T03:33:01;98177.81;;;8.25;54.97
16806;BME280;8520;50.102;20.010;2022-12-29T03:35:36;98177.34;;;8.27;55.03
16806;BME280;8520;50.102;20.010;2022-12-29T03:38:15;98174.41;;;8.31;54.96
16806;BME280;8520;50.102;20.010;2022-12-29T03:40:49;98170.63;;;8.28;54.94
16806;BME280;8520;50.102;20.010;2022-12-29T03:43:18;98169.56;;;8.16;55.35
16806;BME280;8520;50.102;20.010;2022-12-29T03:45:48;98167.72;;;8.13;55.27
16806;BME280;8520;50.102;20.010;2022-12-29T03:48:17;98163.81;;;7.96;55.43
16806;BME280;8520;50.102;20.010;2022-12-29T03:50:47;98166.97;;;7.94;55.64
16806;BME280;8520;50.102;20.010;2022-12-29T03:53:16;98167.44;;;8.02;55.64
16806;BME280;8520;50.102;20.010;2022-12-29T03:55:45;98174.31;;;8.07;55.54
16806;BME280;8520;50.102;20.010;2022-12-29T03:58:13;98168.38;;;8.08;55.58
16806;BME280;8520;50.102;20.010;2022-12-29T04:00:58;98174.31;;;8.07;55.51
16806;BME280;8520;50.102;20.010;2022-12-29T04:03:26;98186.19;;;8.13;55.28
16806;BME280;8520;50.102;20.010;2022-12-29T04:05:57;98187.28;;;7.97;54.73
16806;BME280;8520;50.102;20.010;2022-12-29T04:08:31;98168.53;;;7.86;54.73
16806;BME280;8520;50.102;20.010;2022-12-29T04:10:59;98160.13;;;7.99;54.28
16806;BME280;8520;50.102;20.010;2022-12-29T04:13:28;98168.84;;;7.97;54.44
16806;BME280;8520;50.102;20.010;2022-12-29T04:15:56;98175.69;;;7.84;53.97
16806;BME280;8520;50.102;20.010;2022-12-29T04:18:24;98175.69;;;7.93;54.04
16806;BME280;8520;50.102;20.010;2022-12-29T04:20:52;98170.03;;;7.60;54.86
16806;BME280;8520;50.102;20.010;2022-12-29T04:23:35;98177.34;;;7.54;54.81
16806;BME280;8520;50.102;20.010;2022-12-29T04:26:07;98171.38;;;7.37;55.03
16806;BME280;8520;50.102;20.010;2022-12-29T04:29:02;98162.38;;;7.27;55.16
16806;BME280;8520;50.102;20.010;2022-12-29T04:31:40;98159.09;;;7.78;54.10
16806;BME280;8520;50.102;20.010;2022-12-29T04:34:08;98147.66;;;7.80;54.13
16806;BME280;8520;50.102;20.010;2022-12-29T04:36:38;98143.53;;;7.84;54.18
16806;BME280;8520;50.102;20.010;2022-12-29T04:39:08;98143.03;;;7.31;55.31
16806;BME280;8520;50.102;20.010;2022-12-29T04:41:38;98141.69;;;7.63;54.63
16806;BME280;8520;50.102;20.010;2022-12-29T04:44:10;98144.75;;;7.56;55.14
16806;BME280;8520;50.102;20.010;2022-12-29T04:46:54;98130.56;;;7.76;54.47
16806;BME280;8520;50.102;20.010;2022-12-29T04:49:42;98122.97;;;7.70;54.35
16806;BME280;8520;50.102;20.010;2022-12-29T04:52:45;98131.66;;;7.69;54.69
16806;BME280;8520;50.102;20.010;2022-12-29T04:55:15;98127.38;;;7.59;54.99
16806;BME280;8520;50.102;20.010;2022-12-29T04:57:44;98127.69;;;7.61;55.11
16806;BME280;8520;50.102;20.010;2022-12-29T05:00:17;98114.56;;;7.37;55.22
16806;BME280;8520;50.102;20.010;2022-12-29T05:02:45;98120.97;;;7.44;55.17
16806;BME280;8520;50.102;20.010;2022-12-29T05:05:15;98129.31;;;7.22;56.06
16806;BME280;8520;50.102;20.010;2022-12-29T05:07:47;98132.06;;;7.31;56.12
16806;BME280;8520;50.102;20.010;2022-12-29T05:10:17;98122.31;;;7.39;56.01
16806;BME280;8520;50.102;20.010;2022-12-29T05:12:47;98129.75;;;7.11;56.24
16806;BME280;8520;50.102;20.010;2022-12-29T05:15:16;98127.34;;;7.31;56.15
16806;BME280;8520;50.102;20.010;2022-12-29T05:17:44;98117.31;;;7.37;55.90
16806;BME280;8520;50.102;20.010;2022-12-29T05:20:13;98122.34;;;7.48;55.80
16806;BME280;8520;50.102;20.010;2022-12-29T05:22:41;98114.13;;;7.48;55.90
16806;BME280;8520;50.102;20.010;2022-12-29T05:25:09;98118.09;;;7.56;56.05
16806;BME280;8520;50.102;20.010;2022-12-29T05:27:51;98118.97;;;7.26;56.74
16806;BME280;8520;50.102;20.010;2022-12-29T05:30:38;98112.59;;;7.47;56.00
16806;BME280;8520;50.102;20.010;2022-12-29T05:33:06;98111.84;;;7.83;55.21
16806;BME280;8520;50.102;20.010;2022-12-29T05:35:34;98117.78;;;7.91;54.96
16806;BME280;8520;50.102;20.010;2022-12-29T05:38:02;98121.44;;;7.69;55.89
16806;BME280;8520;50.102;20.010;2022-12-29T05:40:31;98130.28;;;7.83;55.75
16806;BME280;8520;50.102;20.010;2022-12-29T05:43:04;98124.19;;;7.42;56.56
16806;BME280;8520;50.102;20.010;2022-12-29T05:45:54;98111.69;;;7.68;56.36
16806;BME280;8520;50.102;20.010;2022-12-29T05:48:30;98113.34;;;7.38;56.88
16806;BME280;8520;50.102;20.010;2022-12-29T05:51:17;98119.09;;;7.13;57.36
16806;BME280;8520;50.102;20.010;2022-12-29T05:53:47;98130.16;;;6.51;58.62
16806;BME280;8520;50.102;20.010;2022-12-29T05:56:16;98131.34;;;6.19;59.76
16806;BME280;8520;50.102;20.010;2022-12-29T05:58:52;98134.19;;;6.68;59.02
16806;BME280;8520;50.102;20.010;2022-12-29T06:01:21;98129.88;;;6.98;57.80
16806;BME280;8520;50.102;20.010;2022-12-29T06:03:50;98137.84;;;6.74;58.17
16806;BME280;8520;50.102;20.010;2022-12-29T06:06:19;98121.56;;;7.29;57.09
16806;BME280;8520;50.102;20.010;2022-12-29T06:08:48;98117.16;;;7.32;57.14
16806;BME280;8520;50.102;20.010;2022-12-29T06:11:18;98108.31;;;7.37;57.08
16806;BME280;8520;50.102;20.010;2022-12-29T06:13:55;98107.06;;;7.10;57.92
16806;BME280;8520;50.102;20.010;2022-12-29T06:16:23;98106.78;;;7.27;57.39
16806;BME280;8520;50.102;20.010;2022-12-29T06:18:56;98115.06;;;6.77;58.30
16806;BME280;8520;50.102;20.010;2022-12-29T06:21:24;98115.53;;;6.94;57.60
16806;BME280;8520;50.102;20.010;2022-12-29T06:23:52;98116.06;;;7.29;57.45
16806;BME280;8520;50.102;20.010;2022-12-29T06:26:20;98112.75;;;7.44;57.08
16806;BME280;8520;50.102;20.010;2022-12-29T06:28:48;98112.59;;;7.56;56.70
16806;BME280;8520;50.102;20.010;2022-12-29T06:31:18;98114.88;;;7.58;56.29
16806;BME280;8520;50.102;20.010;2022-12-29T06:33:47;98121.28;;;7.36;56.92
16806;BME280;8520;50.102;20.010;2022-12-29T06:36:16;98113.97;;;7.43;56.86
16806;BME280;8520;50.102;20.010;2022-12-29T06:38:44;98111.38;;;7.66;56.23
16806;BME280;8520;50.102;20.010;2022-12-29T06:41:12;98103.59;;;7.65;56.05
16806;BME280;8520;50.102;20.010;2022-12-29T06:44:07;98101.63;;;7.56;56.07
16806;BME280;8520;50.102;20.010;2022-12-29T06:46:50;98108.03;;;7.81;55.94
16806;BME280;8520;50.102;20.010;2022-12-29T06:49:18;98111.69;;;7.68;56.27
16806;BME280;8520;50.102;20.010;2022-12-29T06:51:46;98113.34;;;7.75;55.96
16806;BME280;8520;50.102;20.010;2022-12-29T06:54:14;98106.22;;;7.68;56.39
16806;BME280;8520;50.102;20.010;2022-12-29T06:56:42;98096.88;;;8.03;56.77
16806;BME280;8520;50.102;20.010;2022-12-29T06:59:11;98091.25;;;7.97;56.22
16806;BME280;8520;50.102;20.010;2022-12-29T07:01:39;98102.69;;;7.86;55.99
16806;BME280;8520;50.102;20.010;2022-12-29T07:04:09;98101.28;;;8.00;56.15
16806;BME280;8520;50.102;20.010;2022-12-29T07:06:37;98106.94;;;8.06;55.75
16806;BME280;8520;50.102;20.010;2022-12-29T07:09:07;98103.88;;;7.94;56.06
16806;BME280;8520;50.102;20.010;2022-12-29T07:11:36;98101.00;;;8.07;56.29
16806;BME280;8520;50.102;20.010;2022-12-29T07:14:04;98094.28;;;8.08;56.64
16806;BME280;8520;50.102;20.010;2022-12-29T07:16:32;98099.91;;;8.14;56.39
16806;BME280;8520;50.102;20.010;2022-12-29T07:19:01;98099.25;;;8.28;56.20
16806;BME280;8520;50.102;20.010;2022-12-29T07:21:30;98113.16;;;8.24;56.48
16806;BME280;8520;50.102;20.010;2022-12-29T07:23:58;98122.59;;;8.23;56.64
16806;BME280;8520;50.102;20.010;2022-12-29T07:26:26;98122.69;;;8.57;59.93
16806;BME280;8520;50.102;20.010;2022-12-29T07:29:02;98121.88;;;8.65;58.12
16806;BME280;8520;50.102;20.010;2022-12-29T07:31:30;98122.16;;;8.25;56.23
16806;BME280;8520;50.102;20.010;2022-12-29T07:33:59;98121.22;;;8.28;55.71
16806;BME280;8520;50.102;20.010;2022-12-29T07:36:27;98111.00;;;8.28;55.74
16806;BME280;8520;50.102;20.010;2022-12-29T07:39:02;98105.84;;;8.03;55.87
16806;BME280;8520;50.102;20.010;2022-12-29T07:41:30;98105.25;;;8.08;55.62
16806;BME280;8520;50.102;20.010;2022-12-29T07:44:01;98106.31;;;8.11;55.60
16806;BME280;8520;50.102;20.010;2022-12-29T07:46:48;98092.94;;;7.85;56.20
16806;BME280;8520;50.102;20.010;2022-12-29T07:49:23;98084.63;;;8.22;55.44
16806;BME280;8520;50.102;20.010;2022-12-29T07:51:51;98088.69;;;8.54;55.11
16806;BME280;8520;50.102;20.010;2022-12-29T07:54:21;98080.28;;;8.48;54.59
16806;BME280;8520;50.102;20.010;2022-12-29T07:56:50;98080.78;;;8.38;55.23
16806;BME280;8520;50.102;20.010;2022-12-29T07:59:18;98072.72;;;8.34;54.99
16806;BME280;8520;50.102;20.010;2022-12-29T08:01:46;98085.53;;;8.37;54.50
16806;BME280;8520;50.102;20.010;2022-12-29T08:04:15;98085.81;;;8.30;54.72
16806;BME280;8520;50.102;20.010;2022-12-29T08:06:43;98090.47;;;8.57;54.74
16806;BME280;8520;50.102;20.010;2022-12-29T08:09:12;98088.31;;;8.70;54.01
16806;BME280;8520;50.102;20.010;2022-12-29T08:11:48;98087.34;;;9.06;53.54
16806;BME280;8520;50.102;20.010;2022-12-29T08:14:17;98081.31;;;9.17;53.13
16806;BME280;8520;50.102;20.010;2022-12-29T08:16:45;98081.50;;;8.90;53.58
16806;BME280;8520;50.102;20.010;2022-12-29T08:19:13;98082.44;;;8.77;53.89
16806;BME280;8520;50.102;20.010;2022-12-29T08:21:42;98082.19;;;8.99;53.45
16806;BME280;8520;50.102;20.010;2022-12-29T08:24:10;98071.09;;;9.18;52.95
16806;BME280;8520;50.102;20.010;2022-12-29T08:26:38;98083.25;;;9.02;53.30
16806;BME280;8520;50.102;20.010;2022-12-29T08:29:08;98083.13;;;9.20;52.97
16806;BME280;8520;50.102;20.010;2022-12-29T08:31:36;98091.72;;;9.13;53.03
16806;BME280;8520;50.102;20.010;2022-12-29T08:34:04;98091.00;;;9.03;53.48
16806;BME280;8520;50.102;20.010;2022-12-29T08:36:32;98087.56;;;8.94;53.66
16806;BME280;8520;50.102;20.010;2022-12-29T08:39:00;98104.84;;;9.18;53.45
16806;BME280;8520;50.102;20.010;2022-12-29T08:41:28;98106.94;;;8.99;53.41
16806;BME280;8520;50.102;20.010;2022-12-29T08:43:57;98105.59;;;9.43;52.67
16806;BME280;8520;50.102;20.010;2022-12-29T08:46:26;98094.44;;;9.61;53.20
16806;BME280;8520;50.102;20.010;2022-12-29T08:48:54;98095.22;;;9.61;53.25
16806;BME280;8520;50.102;20.010;2022-12-29T08:51:23;98091.44;;;9.74;52.79
16806;BME280;8520;50.102;20.010;2022-12-29T08:53:51;98089.19;;;9.48;53.07
16806;BME280;8520;50.102;20.010;2022-12-29T08:56:20;98090.47;;;9.62;52.73
16806;BME280;8520;50.102;20.010;2022-12-29T08:58:53;98093.69;;;9.60;52.53
16806;BME280;8520;50.102;20.010;2022-12-29T09:01:22;98082.13;;;9.71;52.41
16806;BME280;8520;50.102;20.010;2022-12-29T09:03:53;98093.22;;;9.62;53.17
16806;BME280;8520;50.102;20.010;2022-12-29T09:06:41;98078.31;;;9.68;52.75
16806;BME280;8520;50.102;20.010;2022-12-29T09:09:09;98082.81;;;9.95;51.86
16806;BME280;8520;50.102;20.010;2022-12-29T09:11:38;98086.72;;;9.89;52.27
16806;BME280;8520;50.102;20.010;2022-12-29T09:14:06;98090.50;;;9.38;52.87
16806;BME280;8520;50.102;20.010;2022-12-29T09:16:35;98081.00;;;9.78;52.32
16806;BME280;8520;50.102;20.010;2022-12-29T09:19:04;98079.88;;;9.84;51.96
16806;BME280;8520;50.102;20.010;2022-12-29T09:21:33;98066.59;;;9.83;52.60
16806;BME280;8520;50.102;20.010;2022-12-29T09:24:01;98055.19;;;10.05;51.87
16806;BME280;8520;50.102;20.010;2022-12-29T09:26:29;98058.72;;;9.90;51.83
16806;BME280;8520;50.102;20.010;2022-12-29T09:28:57;98053.03;;;10.09;52.05
16806;BME280;8520;50.102;20.010;2022-12-29T09:31:25;98038.97;;;9.92;51.99
16806;BME280;8520;50.102;20.010;2022-12-29T09:33:53;98037.81;;;10.13;51.57
16806;BME280;8520;50.102;20.010;2022-12-29T09:36:23;98048.94;;;10.04;51.64
16806;BME280;8520;50.102;20.010;2022-12-29T09:38:52;98057.13;;;10.43;51.49
16806;BME280;8520;50.102;20.010;2022-12-29T09:41:25;98059.78;;;10.22;51.35
16806;BME280;8520;50.102;20.010;2022-12-29T09:44:06;98064.56;;;10.57;51.05
16806;BME280;8520;50.102;20.010;2022-12-29T09:46:44;98074.63;;;10.60;50.81
16806;BME280;8520;50.102;20.010;2022-12-29T09:49:21;98069.66;;;10.79;50.79
16806;BME280;8520;50.102;20.010;2022-12-29T09:51:54;98062.38;;;10.96;50.58
16806;BME280;8520;50.102;20.010;2022-12-29T09:54:38;98064.94;;;11.00;50.21
16806;BME280;8520;50.102;20.010;2022-12-29T09:57:16;98070.94;;;11.19;50.97
16806;BME280;8520;50.102;20.010;2022-12-29T09:59:49;98074.28;;;10.52;51.92
16806;BME280;8520;50.102;20.010;2022-12-29T10:02:29;98071.22;;;10.50;51.33
16806;BME280;8520;50.102;20.010;2022-12-29T10:04:59;98058.84;;;10.75;51.18
16806;BME280;8520;50.102;20.010;2022-12-29T10:07:36;98064.16;;;10.79;50.83
16806;BME280;8520;50.102;20.010;2022-12-29T10:10:20;98066.91;;;10.29;51.90
16806;BME280;8520;50.102;20.010;2022-12-29T10:12:58;98049.03;;;10.39;52.27
16806;BME280;8520;50.102;20.010;2022-12-29T10:15:40;98047.44;;;10.68;51.40
16806;BME280;8520;50.102;20.010;2022-12-29T10:18:28;98056.47;;;10.68;50.97
16806;BME280;8520;50.102;20.010;2022-12-29T10:21:05;98058.22;;;10.51;52.32
16806;BME280;8520;50.102;20.010;2022-12-29T10:23:40;98050.38;;;10.79;51.02
16806;BME280;8520;50.102;20.010;2022-12-29T10:26:13;98044.53;;;11.12;51.26
16806;BME280;8520;50.102;20.010;2022-12-29T10:28:47;98041.91;;;11.44;50.59
16806;BME280;8520;50.102;20.010;2022-12-29T10:31:20;98045.69;;;11.46;50.39
16806;BME280;8520;50.102;20.010;2022-12-29T10:33:51;98041.91;;;11.90;50.14
16806;BME280;8520;50.102;20.010;2022-12-29T10:36:28;98037.22;;;11.76;50.15
16806;BME280;8520;50.102;20.010;2022-12-29T10:39:05;98033.22;;;12.03;50.25
16806;BME280;8520;50.102;20.010;2022-12-29T10:41:41;98027.88;;;11.93;49.63
16806;BME280;8520;50.102;20.010;2022-12-29T10:44:15;98035.75;;;12.06;49.20
16806;BME280;8520;50.102;20.010;2022-12-29T10:46:47;98018.31;;;12.20;49.25
16806;BME280;8520;50.102;20.010;2022-12-29T10:49:20;98024.84;;;12.17;49.10
16806;BME280;8520;50.102;20.010;2022-12-29T10:51:50;98010.19;;;12.43;49.12
16806;BME280;8520;50.102;20.010;2022-12-29T10:54:25;98016.69;;;12.77;49.08
16806;BME280;8520;50.102;20.010;2022-12-29T10:56:57;98006.41;;;12.83;48.74
16806;BME280;8520;50.102;20.010;2022-12-29T10:59:30;98007.81;;;13.10;48.29
16806;BME280;8520;50.102;20.010;2022-12-29T11:02:04;98003.03;;;13.16;47.84
16806;BME280;8520;50.102;20.010;2022-12-29T11:04:50;98001.06;;;13.22;47.78
16806;BME280;8520;50.102;20.010;2022-12-29T11:07:21;97996.59;;;13.36;47.64
16806;BME280;8520;50.102;20.010;2022-12-29T11:09:54;97998.72;;;13.04;47.92
16806;BME280;8520;50.102;20.010;2022-12-29T11:12:25;97993.56;;;13.34;47.73
16806;BME280;8520;50.102;20.010;2022-12-29T11:15:13;97992.06;;;13.38;47.44
16806;BME280;8520;50.102;20.010;2022-12-29T11:17:44;97985.28;;;13.40;47.67
16806;BME280;8520;50.102;20.010;2022-12-29T11:20:33;97986.34;;;13.64;47.35
16806;BME280;8520;50.102;20.010;2022-12-29T11:23:03;97997.94;;;13.80;47.06
16806;BME280;8520;50.102;20.010;2022-12-29T11:25:33;97994.88;;;13.44;47.72
16806;BME280;8520;50.102;20.010;2022-12-29T11:28:14;97996.03;;;13.21;48.52
16806;BME280;8520;50.102;20.010;2022-12-29T11:30:43;97998.97;;;13.00;48.85
16806;BME280;8520;50.102;20.010;2022-12-29T11:33:11;97982.50;;;13.34;48.56
16806;BME280;8520;50.102;20.010;2022-12-29T11:35:41;97984.25;;;13.31;49.01
16806;BME280;8520;50.102;20.010;2022-12-29T11:38:20;97977.88;;;13.08;49.01
16806;BME280;8520;50.102;20.010;2022-12-29T11:40:50;97984.09;;;12.98;49.72
16806;BME280;8520;50.102;20.010;2022-12-29T11:43:23;97982.63;;;13.02;49.89
16806;BME280;8520;50.102;20.010;2022-12-29T11:45:54;97991.72;;;13.14;49.79
16806;BME280;8520;50.102;20.010;2022-12-29T11:48:24;97976.75;;;12.89;50.32
16806;BME280;8520;50.102;20.010;2022-12-29T11:50:58;97972.09;;;13.12;50.37
16806;BME280;8520;50.102;20.010;2022-12-29T11:53:30;97974.34;;;13.14;49.95
16806;BME280;8520;50.102;20.010;2022-12-29T11:56:04;97975.22;;;13.36;50.25
16806;BME280;8520;50.102;20.010;2022-12-29T11:58:34;97972.91;;;13.24;50.08
16806;BME280;8520;50.102;20.010;2022-12-29T12:01:06;97970.47;;;13.54;49.80
16806;BME280;8520;50.102;20.010;2022-12-29T12:03:37;97965.19;;;13.61;49.95
16806;BME280;8520;50.102;20.010;2022-12-29T12:06:11;97965.13;;;13.28;49.91
16806;BME280;8520;50.102;20.010;2022-12-29T12:08:46;97961.88;;;13.35;50.45
16806;BME280;8520;50.102;20.010;2022-12-29T12:11:20;97951.09;;;13.59;50.18
16806;BME280;8520;50.102;20.010;2022-12-29T12:13:57;97968.69;;;13.45;50.52
16806;BME280;8520;50.102;20.010;2022-12-29T12:16:41;97967.47;;;13.74;50.46
16806;BME280;8520;50.102;20.010;2022-12-29T12:19:15;97962.09;;;13.20;51.14
16806;BME280;8520;50.102;20.010;2022-12-29T12:21:52;97972.69;;;13.38;50.97
16806;BME280;8520;50.102;20.010;2022-12-29T12:24:34;97967.66;;;13.31;51.27
16806;BME280;8520;50.102;20.010;2022-12-29T12:27:10;97959.13;;;13.52;50.87
16806;BME280;8520;50.102;20.010;2022-12-29T12:29:45;97960.16;;;13.54;50.85
16806;BME280;8520;50.102;20.010;2022-12-29T12:32:19;97966.31;;;13.16;51.51
16806;BME280;8520;50.102;20.010;2022-12-29T12:34:49;97951.13;;;13.87;50.31
16806;BME280;8520;50.102;20.010;2022-12-29T12:37:44;97959.88;;;13.35;51.34
16806;BME280;8520;50.102;20.010;2022-12-29T12:40:36;97961.66;;;13.61;50.77
16806;BME280;8520;50.102;20.010;2022-12-29T12:43:24;97959.91;;;13.69;50.76
16806;BME280;8520;50.102;20.010;2022-12-29T12:46:10;97956.91;;;13.84;50.56
16806;BME280;8520;50.102;20.010;2022-12-29T12:48:56;97952.63;;;14.11;49.96
16806;BME280;8520;50.102;20.010;2022-12-29T12:51:34;97959.13;;;13.52;51.29
16806;BME280;8520;50.102;20.010;2022-12-29T12:54:19;97962.44;;;13.89;50.71
16806;BME280;8520;50.102;20.010;2022-12-29T12:56:58;97957.91;;;13.64;51.54
16806;BME280;8520;50.102;20.010;2022-12-29T12:59:38;97956.41;;;13.74;51.17
16806;BME280;8520;50.102;20.010;2022-12-29T13:02:21;97960.69;;;13.81;51.68
16806;BME280;8520;50.102;20.010;2022-12-29T13:05:25;97960.69;;;14.14;50.60
16806;BME280;8520;50.102;20.010;2022-12-29T13:08:17;97959.41;;;13.99;50.67
16806;BME280;8520;50.102;20.010;2022-12-29T13:10:55;97961.66;;;13.50;51.74
16806;BME280;8520;50.102;20.010;2022-12-29T13:13:42;97957.41;;;13.65;51.73
16806;BME280;8520;50.102;20.010;2022-12-29T13:16:22;97956.41;;;13.63;51.47
16806;BME280;8520;50.102;20.010;2022-12-29T13:18:59;97964.94;;;13.48;52.04
16806;BME280;8520;50.102;20.010;2022-12-29T13:21:40;97964.59;;;13.24;52.43
16806;BME280;8520;50.102;20.010;2022-12-29T13:24:27;97967.19;;;13.50;52.16
16806;BME280;8520;50.102;20.010;2022-12-29T13:27:04;97970.97;;;13.52;52.09
16806;BME280;8520;50.102;20.010;2022-12-29T13:29:37;97977.78;;;13.62;52.03
16806;BME280;8520;50.102;20.010;2022-12-29T13:32:21;97975.28;;;13.98;51.77
16806;BME280;8520;50.102;20.010;2022-12-29T13:34:59;97983.09;;;13.83;51.74
16806;BME280;8520;50.102;20.010;2022-12-29T13:37:34;97985.59;;;14.42;50.86
16806;BME280;8520;50.102;20.010;2022-12-29T13:40:13;97982.84;;;14.20;51.30
16806;BME280;8520;50.102;20.010;2022-12-29T13:42:43;97989.38;;;14.22;50.73
16806;BME280;8520;50.102;20.010;2022-12-29T13:45:15;97991.41;;;14.11;51.45
16806;BME280;8520;50.102;20.010;2022-12-29T13:47:48;98001.22;;;14.29;50.93